Time;durP1;ratioP1;P1;durP2;ratioP2;P2;SDS_P1;SDS_P2;PMS_P1;PMS_P2;Temp;Humidity;BMP_temperature;BMP_pressure;BME280_temperature;BME280_humidity;BME280_pressure;Samples;Min_cycle;Max_cycle;Signal;HPM_P1;HPM_P2
2022/03/18 00:02:21;;;;;;;0.30;0.30;;;9.70;95.30;;;;;;5054652;28;20268;-72
2022/03/18 00:04:48;;;;;;;0.30;0.30;;;9.90;95.00;;;;;;5054359;28;20256;-71
2022/03/18 00:07:15;;;;;;;0.30;0.30;;;10.10;94.20;;;;;;5054333;28;20591;-73
2022/03/18 00:09:41;;;;;;;0.30;0.30;;;9.90;94.50;;;;;;5054396;28;20253;-72
2022/03/18 00:12:11;;;;;;;0.40;0.40;;;9.80;94.90;;;;;;5054263;28;20583;-72
2022/03/18 00:14:39;;;;;;;0.40;0.40;;;10.00;94.30;;;;;;5054379;28;20181;-72
2022/03/18 00:17:06;;;;;;;0.30;0.30;;;9.40;95.00;;;;;;5054181;28;20569;-72
2022/03/18 00:19:33;;;;;;;0.30;0.30;;;9.00;95.70;;;;;;5054536;28;20534;-73
2022/03/18 00:22:01;;;;;;;0.30;0.30;;;8.70;96.80;;;;;;5054059;28;20181;-72
2022/03/18 00:24:27;;;;;;;0.30;0.30;;;8.80;96.90;;;;;;5054186;28;20192;-72
2022/03/18 00:26:53;;;;;;;0.30;0.30;;;8.90;96.60;;;;;;5053844;28;20796;-72
2022/03/18 00:29:18;;;;;;;0.40;0.40;;;8.60;97.00;;;;;;5054071;28;20176;-72
2022/03/18 00:31:44;;;;;;;0.30;0.30;;;8.40;97.50;;;;;;5053744;28;20620;-72
2022/03/18 00:34:10;;;;;;;0.30;0.30;;;8.20;98.20;;;;;;5054092;28;20259;-72
2022/03/18 00:36:37;;;;;;;0.30;0.30;;;8.40;98.10;;;;;;5053802;28;20564;-72
2022/03/18 00:39:03;;;;;;;0.30;0.30;;;8.80;97.90;;;;;;5053731;28;20173;-73
2022/03/18 00:41:30;;;;;;;0.40;0.40;;;9.00;97.20;;;;;;5053553;28;20173;-72
2022/03/18 00:43:56;;;;;;;0.40;0.40;;;9.00;97.00;;;;;;5053861;28;20197;-72
2022/03/18 00:46:23;;;;;;;0.30;0.30;;;9.10;96.80;;;;;;5053616;28;20688;-72
2022/03/18 00:54:17;;;;;;;0.75;0.75;;;9.30;96.20;;;;;;5053527;28;20211;-72
2022/03/18 00:56:43;;;;;;;0.30;0.30;;;9.50;95.90;;;;;;5053464;28;20188;-72
2022/03/18 00:59:10;;;;;;;0.83;0.83;;;9.40;95.80;;;;;;5053554;28;20173;-71
2022/03/18 01:01:36;;;;;;;0.30;0.30;;;9.00;96.40;;;;;;5052918;28;20182;-71
2022/03/18 01:04:02;;;;;;;0.40;0.40;;;9.20;96.60;;;;;;5053584;28;20181;-73
2022/03/18 01:06:28;;;;;;;0.30;0.30;;;9.50;96.30;;;;;;5053451;28;20669;-72
2022/03/18 01:08:54;;;;;;;0.30;0.30;;;9.70;95.90;;;;;;5053426;28;20661;-72
2022/03/18 01:11:20;;;;;;;0.30;0.30;;;9.60;95.50;;;;;;5053253;28;20271;-72
2022/03/18 01:13:46;;;;;;;0.30;0.30;;;9.10;95.70;;;;;;5053348;28;20642;-73
2022/03/18 01:16:11;;;;;;;0.40;0.40;;;8.90;96.70;;;;;;5053341;28;20203;-72
2022/03/18 01:18:37;;;;;;;0.30;0.30;;;8.60;96.90;;;;;;5053419;28;20191;-71
2022/03/18 01:21:03;;;;;;;0.40;0.40;;;8.50;97.10;;;;;;5053135;28;20545;-72
2022/03/18 01:23:29;;;;;;;0.30;0.30;;;8.40;97.50;;;;;;5053419;28;20180;-72
2022/03/18 01:25:55;;;;;;;1.70;1.03;;;8.60;97.10;;;;;;5053115;28;20200;-72
2022/03/18 01:28:23;;;;;;;0.30;0.30;;;8.60;97.40;;;;;;5053198;28;20203;-72
2022/03/18 01:30:49;;;;;;;0.30;0.30;;;8.90;97.10;;;;;;5053021;28;20175;-72
2022/03/18 01:33:15;;;;;;;0.30;0.30;;;8.90;96.90;;;;;;5053404;28;20251;-72
2022/03/18 01:35:40;;;;;;;0.30;0.30;;;9.10;96.70;;;;;;5053085;28;20267;-71
2022/03/18 01:38:06;;;;;;;0.40;0.40;;;9.40;96.20;;;;;;5053090;28;20170;-72
2022/03/18 01:40:32;;;;;;;0.30;0.30;;;9.40;95.40;;;;;;5053178;28;20755;-72
2022/03/18 01:42:58;;;;;;;0.30;0.30;;;9.10;95.60;;;;;;5053287;28;20169;-72
2022/03/18 01:45:25;;;;;;;0.40;0.40;;;9.30;95.90;;;;;;5053073;28;20427;-73
2022/03/18 01:47:51;;;;;;;0.30;0.30;;;9.30;95.60;;;;;;5053019;28;20205;-72
2022/03/18 01:50:16;;;;;;;0.30;0.30;;;9.30;95.30;;;;;;5053195;28;20181;-72
2022/03/18 01:52:44;;;;;;;0.30;0.30;;;9.00;96.10;;;;;;5053148;28;20911;-72
2022/03/18 01:55:10;;;;;;;0.40;0.40;;;9.00;96.00;;;;;;5053055;28;20431;-73
2022/03/18 01:57:36;;;;;;;0.30;0.30;;;9.20;95.90;;;;;;5053288;28;20182;-72
2022/03/18 02:00:04;;;;;;;0.57;0.57;;;9.40;95.70;;;;;;5052967;28;20172;-72
2022/03/18 02:02:30;;;;;;;0.30;0.30;;;9.50;95.30;;;;;;5052991;28;20414;-73
2022/03/18 02:04:57;;;;;;;0.40;0.40;;;9.40;95.00;;;;;;5052973;28;20540;-72
2022/03/18 02:07:22;;;;;;;0.80;0.80;;;9.40;95.20;;;;;;5051507;28;20618;-71
2022/03/18 02:09:48;;;;;;;0.30;0.30;;;9.50;95.00;;;;;;5052829;28;20257;-72
2022/03/18 02:12:14;;;;;;;0.30;0.30;;;9.60;95.00;;;;;;5053655;28;20172;-72
2022/03/18 02:14:41;;;;;;;0.30;0.30;;;9.60;95.00;;;;;;5056536;28;20415;-72
2022/03/18 02:17:09;;;;;;;0.30;0.30;;;9.50;95.00;;;;;;5055240;28;20667;-72
2022/03/18 02:19:36;;;;;;;0.30;0.30;;;9.50;94.90;;;;;;5055279;28;20214;-72
2022/03/18 02:22:08;;;;;;;0.40;0.40;;;9.50;95.10;;;;;;5056180;28;20207;-72
2022/03/18 02:24:35;;;;;;;0.30;0.30;;;9.40;95.20;;;;;;5056587;28;20580;-72
2022/03/18 02:27:00;;;;;;;2.50;2.40;;;9.00;95.30;;;;;;5056106;28;20640;-72
2022/03/18 02:29:28;;;;;;;0.40;0.40;;;8.90;95.90;;;;;;5056509;28;20204;-72
2022/03/18 02:31:54;;;;;;;0.30;0.30;;;9.10;95.90;;;;;;5054985;28;20206;-72
2022/03/18 02:34:22;;;;;;;0.40;0.40;;;9.00;95.80;;;;;;5056330;28;20184;-72
2022/03/18 02:36:48;;;;;;;1.15;1.15;;;8.90;95.80;;;;;;5054797;28;20189;-72
2022/03/18 02:39:14;;;;;;;1.07;1.07;;;8.70;96.10;;;;;;5056164;28;20650;-72
2022/03/18 02:41:40;;;;;;;0.30;0.30;;;8.40;96.70;;;;;;5055968;28;20435;-72
2022/03/18 02:44:06;;;;;;;0.40;0.40;;;8.50;96.90;;;;;;5056041;28;20165;-72
2022/03/18 02:46:32;;;;;;;0.37;0.37;;;7.90;97.50;;;;;;5056025;28;20556;-71
2022/03/18 02:49:02;;;;;;;0.30;0.30;;;8.20;98.20;;;;;;5055893;28;20161;-72
2022/03/18 02:51:28;;;;;;;0.30;0.30;;;8.60;97.60;;;;;;5055841;28;20181;-72
2022/03/18 02:53:55;;;;;;;0.30;0.30;;;8.70;97.00;;;;;;5055862;28;20165;-71
2022/03/18 02:56:21;;;;;;;0.82;0.82;;;8.90;96.60;;;;;;5054436;28;20670;-72
2022/03/18 02:58:46;;;;;;;0.30;0.30;;;8.80;96.50;;;;;;5055866;28;20303;-73
2022/03/18 03:01:12;;;;;;;0.57;0.57;;;8.90;96.70;;;;;;5055411;28;20473;-72
2022/03/18 03:03:38;;;;;;;0.30;0.30;;;9.20;96.40;;;;;;5055809;28;20173;-72
2022/03/18 03:08:47;;;;;;;0.30;0.30;;;8.70;96.50;;;;;;5055597;28;20210;-72
2022/03/18 03:11:13;;;;;;;0.40;0.40;;;8.80;96.90;;;;;;5055399;28;20182;-72
2022/03/18 03:13:39;;;;;;;0.33;0.33;;;9.10;96.50;;;;;;5055574;28;20183;-72
2022/03/18 03:16:05;;;;;;;0.30;0.30;;;9.00;96.10;;;;;;5055298;28;20488;-72
2022/03/18 03:18:31;;;;;;;0.30;0.30;;;9.10;96.40;;;;;;5055534;28;20173;-73
2022/03/18 03:20:57;;;;;;;0.50;0.50;;;9.10;96.40;;;;;;5055173;28;20185;-73
2022/03/18 03:23:26;;;;;;;0.77;0.77;;;9.20;96.20;;;;;;5054950;28;20260;-72
2022/03/18 03:25:55;;;;;;;0.30;0.30;;;9.30;96.10;;;;;;5054933;28;20220;-71
2022/03/18 03:28:21;;;;;;;0.40;0.40;;;9.40;95.70;;;;;;5055225;28;20564;-72
2022/03/18 03:30:48;;;;;;;0.40;0.40;;;9.50;95.70;;;;;;5054926;28;20165;-72
2022/03/18 03:33:14;;;;;;;0.30;0.30;;;9.30;95.60;;;;;;5055270;28;20257;-71
2022/03/18 03:35:39;;;;;;;0.40;0.40;;;9.10;95.80;;;;;;5055041;28;20193;-72
2022/03/18 03:38:06;;;;;;;0.30;0.30;;;9.20;96.00;;;;;;5055100;28;20220;-72
2022/03/18 03:40:32;;;;;;;0.30;0.30;;;9.30;95.90;;;;;;5053559;28;20182;-72
2022/03/18 03:42:58;;;;;;;0.75;0.75;;;9.20;95.80;;;;;;5055027;28;20580;-73
2022/03/18 03:45:24;;;;;;;0.30;0.30;;;9.00;95.90;;;;;;5054755;28;20224;-72
2022/03/18 03:47:50;;;;;;;0.30;0.30;;;9.00;96.40;;;;;;5054697;28;20212;-72
2022/03/18 03:50:16;;;;;;;0.30;0.30;;;8.90;96.50;;;;;;5054673;28;20889;-72
2022/03/18 03:52:42;;;;;;;0.30;0.30;;;8.80;96.60;;;;;;5054794;28;20259;-72
2022/03/18 03:55:11;;;;;;;0.30;0.30;;;8.70;96.80;;;;;;5054719;28;20964;-72
2022/03/18 03:57:38;;;;;;;0.30;0.30;;;8.40;97.30;;;;;;5054524;28;20205;-72
2022/03/18 04:00:05;;;;;;;0.32;0.32;;;8.20;98.30;;;;;;5054223;28;20636;-71
2022/03/18 04:02:31;;;;;;;0.30;0.30;;;8.30;98.20;;;;;;5054519;28;20222;-73
2022/03/18 04:04:57;;;;;;;0.40;0.40;;;8.40;98.10;;;;;;5054533;28;20177;-72
2022/03/18 04:07:25;;;;;;;0.30;0.30;;;8.60;98.00;;;;;;5054344;28;20207;-72
2022/03/18 04:09:54;;;;;;;0.50;0.50;;;8.70;97.50;;;;;;5054556;28;20451;-72
2022/03/18 04:12:23;;;;;;;0.30;0.30;;;8.90;97.30;;;;;;5054316;28;20245;-72
2022/03/18 04:14:51;;;;;;;0.30;0.30;;;8.80;97.10;;;;;;5054393;28;20176;-71
2022/03/18 04:17:17;;;;;;;0.30;0.30;;;8.60;97.30;;;;;;5054266;28;20209;-72
2022/03/18 04:19:43;;;;;;;3.08;1.73;;;8.70;97.40;;;;;;5054274;28;20261;-72
2022/03/18 04:22:08;;;;;;;1.70;1.70;;;8.50;97.60;;;;;;5054111;28;20760;-71
2022/03/18 04:24:34;;;;;;;0.30;0.30;;;8.70;97.50;;;;;;5054265;28;20181;-72
2022/03/18 04:27:00;;;;;;;0.30;0.30;;;8.80;97.20;;;;;;5053895;28;20205;-72
2022/03/18 04:29:26;;;;;;;0.37;0.37;;;8.00;97.90;;;;;;5054045;28;20408;-72
2022/03/18 04:31:52;;;;;;;0.30;0.30;;;7.90;98.90;;;;;;5053917;28;20406;-71
2022/03/18 04:34:17;;;;;;;0.57;0.57;;;8.20;98.80;;;;;;5053650;28;20172;-72
2022/03/18 04:36:43;;;;;;;0.40;0.40;;;8.60;98.10;;;;;;5053513;28;20571;-73
2022/03/18 04:39:09;;;;;;;0.40;0.40;;;8.70;97.80;;;;;;5053894;28;20649;-72
2022/03/18 04:41:35;;;;;;;0.30;0.30;;;8.60;97.70;;;;;;5053809;28;20252;-71
2022/03/18 04:44:01;;;;;;;0.30;0.30;;;8.50;97.50;;;;;;5053890;28;20575;-72
2022/03/18 04:46:28;;;;;;;0.30;0.30;;;8.60;97.60;;;;;;5053682;28;20540;-72
2022/03/18 04:48:54;;;;;;;0.35;0.35;;;8.80;97.40;;;;;;5053844;28;20559;-72
2022/03/18 04:51:20;;;;;;;0.30;0.30;;;8.60;97.50;;;;;;5053492;28;20258;-71
2022/03/18 04:53:46;;;;;;;0.30;0.30;;;8.50;97.50;;;;;;5053788;28;20255;-72
2022/03/18 04:58:57;;;;;;;0.30;0.30;;;8.20;98.30;;;;;;5053828;28;20173;-71
2022/03/18 05:01:22;;;;;;;1.13;1.13;;;8.30;98.30;;;;;;5053411;28;20227;-72
2022/03/18 05:03:48;;;;;;;1.90;1.80;;;7.60;98.60;;;;;;5053756;28;20196;-72
2022/03/18 05:06:13;;;;;;;0.40;0.40;;;7.40;99.80;;;;;;5053403;28;20628;-73
2022/03/18 05:08:39;;;;;;;0.97;0.97;;;7.60;99.90;;;;;;5053246;28;20203;-72
2022/03/18 05:11:05;;;;;;;0.30;0.30;;;7.80;99.30;;;;;;5053357;28;20174;-72
2022/03/18 05:13:31;;;;;;;0.40;0.40;;;7.80;99.10;;;;;;5053591;28;20630;-72
2022/03/18 05:15:56;;;;;;;0.33;0.33;;;8.00;99.00;;;;;;5053401;28;20589;-73
2022/03/18 05:18:22;;;;;;;0.30;0.30;;;8.10;99.30;;;;;;5053287;28;20177;-72
2022/03/18 05:20:48;;;;;;;0.97;0.97;;;7.90;98.90;;;;;;5053118;28;20172;-73
2022/03/18 05:23:14;;;;;;;0.30;0.30;;;7.90;99.20;;;;;;5053227;28;20462;-73
2022/03/18 05:25:40;;;;;;;0.30;0.30;;;7.80;98.90;;;;;;5053367;28;20271;-73
2022/03/18 05:28:07;;;;;;;0.30;0.30;;;7.90;99.40;;;;;;5051941;28;20571;-72
2022/03/18 05:30:33;;;;;;;0.30;0.30;;;8.10;99.00;;;;;;5053014;28;20170;-72
2022/03/18 05:32:59;;;;;;;0.30;0.30;;;8.30;98.30;;;;;;5053337;28;20253;-73
2022/03/18 05:35:25;;;;;;;0.30;0.30;;;8.20;98.00;;;;;;5053253;28;20789;-72
2022/03/18 05:37:50;;;;;;;0.30;0.30;;;8.50;98.00;;;;;;5051829;28;20407;-71
2022/03/18 05:40:18;;;;;;;0.30;0.30;;;8.40;98.20;;;;;;5053179;28;20238;-73
2022/03/18 05:42:45;;;;;;;0.40;0.40;;;8.40;97.90;;;;;;5053114;28;20405;-73
2022/03/18 05:45:11;;;;;;;0.30;0.30;;;8.30;98.30;;;;;;5052707;28;20190;-72
2022/03/18 05:47:37;;;;;;;0.30;0.30;;;8.20;98.00;;;;;;5055508;28;20662;-73
2022/03/18 05:50:05;;;;;;;0.30;0.30;;;8.00;98.80;;;;;;5056997;28;20638;-72
2022/03/18 05:52:37;;;;;;;0.30;0.30;;;8.00;99.20;;;;;;5056974;28;20176;-73
2022/03/18 05:55:03;;;;;;;0.30;0.30;;;8.20;98.90;;;;;;5057044;28;20687;-73
2022/03/18 05:57:30;;;;;;;0.40;0.40;;;8.10;98.40;;;;;;5056785;28;20189;-73
2022/03/18 05:59:57;;;;;;;0.30;0.30;;;8.20;98.90;;;;;;5056773;28;20173;-72
2022/03/18 06:02:23;;;;;;;0.93;0.93;;;8.30;99.00;;;;;;5056912;28;20543;-72
2022/03/18 06:04:50;;;;;;;0.40;0.40;;;8.30;99.00;;;;;;5056864;28;20180;-73
2022/03/18 06:07:16;;;;;;;0.30;0.30;;;8.30;99.30;;;;;;5056656;28;20626;-72
2022/03/18 06:12:26;;;;;;;0.35;0.35;;;8.20;98.90;;;;;;5056857;28;20246;-72
2022/03/18 06:14:51;;;;;;;0.30;0.30;;;8.00;98.00;;;;;;5056712;28;20574;-73
2022/03/18 06:17:17;;;;;;;0.40;0.40;;;7.80;98.60;;;;;;5056475;28;20775;-73
2022/03/18 06:19:43;;;;;;;0.30;0.30;;;7.70;99.20;;;;;;5056474;28;20429;-73
2022/03/18 06:22:08;;;;;;;0.30;0.30;;;7.80;99.10;;;;;;5056348;28;20173;-73
2022/03/18 06:24:35;;;;;;;0.30;0.30;;;7.90;99.50;;;;;;5055071;28;20579;-73
2022/03/18 06:27:01;;;;;;;1.85;0.93;;;7.90;99.20;;;;;;5056272;28;20262;-73
2022/03/18 06:29:28;;;;;;;0.38;0.38;;;8.00;99.70;;;;;;5056490;28;20173;-72
2022/03/18 06:31:54;;;;;;;0.30;0.30;;;8.20;99.00;;;;;;5056012;28;20168;-73
2022/03/18 06:34:20;;;;;;;0.30;0.30;;;8.30;99.00;;;;;;5056262;28;20180;-71
2022/03/18 06:36:47;;;;;;;0.30;0.30;;;8.50;98.80;;;;;;5056074;28;20189;-72
2022/03/18 06:39:14;;;;;;;0.40;0.40;;;8.40;99.00;;;;;;5056229;28;20183;-72
2022/03/18 06:41:40;;;;;;;0.30;0.30;;;8.60;99.10;;;;;;5054776;28;20548;-72
2022/03/18 06:44:09;;;;;;;0.30;0.30;;;8.80;98.40;;;;;;5056187;28;20698;-72
2022/03/18 06:46:38;;;;;;;0.40;0.40;;;8.60;97.90;;;;;;5055887;28;20201;-71
2022/03/18 06:49:05;;;;;;;0.40;0.40;;;8.60;97.60;;;;;;5054526;28;20204;-72
2022/03/18 06:51:31;;;;;;;0.32;0.32;;;8.50;97.70;;;;;;5055790;28;20303;-72
2022/03/18 06:53:57;;;;;;;0.30;0.30;;;8.60;98.20;;;;;;5056050;28;20259;-72
2022/03/18 06:56:23;;;;;;;0.30;0.30;;;8.70;98.00;;;;;;5055625;28;20431;-72
2022/03/18 06:58:49;;;;;;;0.73;0.73;;;8.80;97.50;;;;;;5055100;28;20533;-72
2022/03/18 07:01:15;;;;;;;0.50;0.50;;;9.00;97.10;;;;;;5055401;28;20477;-72
2022/03/18 07:03:40;;;;;;;0.30;0.30;;;9.10;96.90;;;;;;5055661;28;20181;-73
2022/03/18 07:06:06;;;;;;;0.40;0.40;;;9.20;96.90;;;;;;5054802;28;20204;-72
2022/03/18 07:08:35;;;;;;;0.87;0.70;;;9.40;96.50;;;;;;5054257;28;20294;-73
2022/03/18 07:11:02;;;;;;;0.30;0.30;;;9.50;95.30;;;;;;5055354;28;20196;-72
2022/03/18 07:13:28;;;;;;;0.77;0.77;;;9.00;96.00;;;;;;5052534;28;20616;-73
2022/03/18 07:15:54;;;;;;;0.30;0.30;;;9.00;97.00;;;;;;5055330;28;20335;-73
2022/03/18 07:18:19;;;;;;;0.30;0.30;;;8.80;97.30;;;;;;5055431;28;20407;-73
2022/03/18 07:20:45;;;;;;;0.90;0.90;;;8.70;96.90;;;;;;5055132;28;20173;-73
2022/03/18 07:23:16;;;;;;;2.50;2.40;;;9.20;97.30;;;;;;5054150;28;20647;-73
2022/03/18 07:25:48;;;;;;;0.30;0.30;;;9.50;95.80;;;;;;5055224;28;20599;-73
2022/03/18 07:28:15;;;;;;;0.60;0.60;;;9.40;95.20;;;;;;5054849;28;20200;-73
2022/03/18 07:30:43;;;;;;;2.45;2.35;;;9.80;94.90;;;;;;5054911;28;20169;-73
2022/03/18 07:33:09;;;;;;;0.43;0.43;;;10.00;93.00;;;;;;5054987;28;20213;-73
2022/03/18 07:35:35;;;;;;;0.30;0.30;;;10.00;93.00;;;;;;5055196;28;20576;-73
2022/03/18 07:38:03;;;;;;;0.95;0.95;;;10.00;92.60;;;;;;5055198;28;20184;-72
2022/03/18 07:40:29;;;;;;;0.30;0.30;;;9.70;93.00;;;;;;5054890;28;20180;-73
2022/03/18 07:42:56;;;;;;;0.40;0.40;;;9.70;94.50;;;;;;5054895;28;20272;-72
2022/03/18 07:45:27;;;;;;;0.40;0.40;;;10.10;93.60;;;;;;5054944;28;20193;-72
2022/03/18 07:47:58;;;;;;;0.40;0.40;;;9.90;93.30;;;;;;5054795;28;20292;-73
2022/03/18 07:50:26;;;;;;;0.43;0.43;;;10.30;92.50;;;;;;5054509;28;20173;-73
2022/03/18 07:52:57;;;;;;;0.50;0.50;;;10.00;92.10;;;;;;5054867;28;20209;-72
2022/03/18 07:55:24;;;;;;;1.98;1.98;;;10.10;92.70;;;;;;5054815;28;20186;-72
2022/03/18 07:57:51;;;;;;;0.40;0.40;;;10.40;92.60;;;;;;5054448;28;20637;-73
2022/03/18 08:00:17;;;;;;;0.30;0.30;;;10.70;91.60;;;;;;5054476;28;20563;-72
2022/03/18 08:02:45;;;;;;;0.30;0.30;;;11.10;92.00;;;;;;5054623;28;20636;-74
2022/03/18 08:05:12;;;;;;;0.85;0.85;;;11.40;90.60;;;;;;5054524;28;20209;-73
2022/03/18 08:07:38;;;;;;;1.50;1.50;;;11.50;89.90;;;;;;5052650;28;20213;-72
2022/03/18 08:10:05;;;;;;;0.98;0.98;;;11.40;88.70;;;;;;5052868;28;20166;-73
2022/03/18 08:12:32;;;;;;;1.95;1.85;;;11.00;90.20;;;;;;5054608;28;20211;-73
2022/03/18 08:14:59;;;;;;;0.63;0.60;;;11.20;90.70;;;;;;5054576;28;20249;-72
2022/03/18 08:17:26;;;;;;;0.30;0.30;;;11.40;89.90;;;;;;5054622;28;20179;-72
2022/03/18 08:19:52;;;;;;;0.30;0.30;;;11.70;88.60;;;;;;5054291;28;20181;-72
2022/03/18 08:22:20;;;;;;;0.40;0.40;;;11.90;86.60;;;;;;5052107;28;20707;-72
2022/03/18 08:24:46;;;;;;;0.30;0.30;;;12.30;85.00;;;;;;5052967;28;20404;-72
2022/03/18 08:27:12;;;;;;;0.40;0.40;;;12.70;85.30;;;;;;5052789;28;20450;-72
2022/03/18 08:29:38;;;;;;;0.80;0.80;;;13.40;82.40;;;;;;5053125;28;20405;-72
2022/03/18 08:32:05;;;;;;;0.57;0.57;;;13.60;81.60;;;;;;5053967;28;20162;-72
2022/03/18 08:34:31;;;;;;;0.30;0.30;;;14.00;78.90;;;;;;5052415;28;20401;-75
2022/03/18 08:36:57;;;;;;;1.53;1.43;;;13.90;77.50;;;;;;5053454;28;20991;-74
2022/03/18 08:39:22;;;;;;;0.40;0.40;;;13.70;78.90;;;;;;5053874;28;20659;-74
2022/03/18 08:41:48;;;;;;;0.87;0.87;;;13.60;77.20;;;;;;5051704;28;20189;-75
2022/03/18 08:44:16;;;;;;;0.70;0.70;;;13.90;78.00;;;;;;5055569;28;20166;-74
2022/03/18 08:46:41;;;;;;;0.30;0.30;;;13.80;78.50;;;;;;5052255;28;20424;-74
2022/03/18 08:49:07;;;;;;;0.30;0.30;;;13.80;75.10;;;;;;5052364;28;20502;-74
2022/03/18 08:51:32;;;;;;;0.30;0.30;;;13.50;76.30;;;;;;5053341;28;20166;-74
2022/03/18 08:53:58;;;;;;;0.50;0.50;;;13.00;77.60;;;;;;5050763;28;20169;-74
2022/03/18 08:56:24;;;;;;;0.43;0.43;;;12.90;78.80;;;;;;5052052;28;20182;-74
2022/03/18 08:58:50;;;;;;;0.30;0.30;;;13.30;80.40;;;;;;5052459;28;20192;-75
2022/03/18 09:01:16;;;;;;;0.30;0.30;;;14.10;77.70;;;;;;5051416;28;20182;-74
2022/03/18 09:03:41;;;;;;;0.70;0.70;;;14.30;73.80;;;;;;5053640;28;20400;-74
2022/03/18 09:06:07;;;;;;;0.60;0.60;;;14.90;72.50;;;;;;5052500;28;20196;-74
2022/03/18 09:08:33;;;;;;;0.30;0.30;;;15.10;71.20;;;;;;5052404;28;20251;-74
2022/03/18 09:10:58;;;;;;;1.03;1.03;;;15.30;70.00;;;;;;5053743;28;20724;-74
2022/03/18 09:13:24;;;;;;;0.40;0.40;;;15.50;69.40;;;;;;5053945;28;20162;-74
2022/03/18 09:15:50;;;;;;;0.30;0.30;;;15.10;69.10;;;;;;5053429;28;20197;-75
2022/03/18 09:18:16;;;;;;;0.40;0.40;;;14.80;70.60;;;;;;5054024;28;20171;-73
2022/03/18 09:20:42;;;;;;;0.40;0.40;;;14.40;73.10;;;;;;5052800;28;20409;-74
2022/03/18 09:23:08;;;;;;;1.93;1.83;;;14.50;74.40;;;;;;5053697;28;20408;-72
2022/03/18 09:25:35;;;;;;;0.40;0.40;;;15.10;73.40;;;;;;5053269;28;20431;-73
2022/03/18 09:28:01;;;;;;;0.70;0.70;;;15.90;70.80;;;;;;5050961;28;20793;-74
2022/03/18 09:30:27;;;;;;;1.90;1.90;;;16.80;67.00;;;;;;5053136;28;20409;-73
2022/03/18 09:32:53;;;;;;;2.10;1.70;;;17.20;63.80;;;;;;5052165;28;20458;-74
2022/03/18 09:35:18;;;;;;;0.30;0.30;;;15.90;65.00;;;;;;5053551;28;20232;-73
2022/03/18 09:37:44;;;;;;;0.80;0.80;;;15.10;67.20;;;;;;5053135;28;20650;-75
2022/03/18 09:40:11;;;;;;;0.40;0.40;;;15.10;68.00;;;;;;5051772;28;20569;-74
2022/03/18 09:42:59;;;;;;;0.50;0.50;;;15.20;67.10;;;;;;5053242;28;20261;-75
2022/03/18 09:45:30;;;;;;;0.70;0.70;;;14.90;67.40;;;;;;5053317;28;20531;-75
2022/03/18 09:47:58;;;;;;;0.30;0.30;;;14.80;68.80;;;;;;5051434;28;20463;-75
2022/03/18 09:50:24;;;;;;;0.40;0.40;;;15.50;67.60;;;;;;5050875;28;20417;-76
2022/03/18 09:52:50;;;;;;;0.40;0.40;;;16.60;63.50;;;;;;5051010;28;20462;-75
2022/03/18 09:55:16;;;;;;;0.30;0.30;;;16.30;62.90;;;;;;5050558;28;20857;-74
2022/03/18 09:57:41;;;;;;;0.50;0.50;;;14.50;65.90;;;;;;5053276;28;20480;-75
2022/03/18 10:00:08;;;;;;;0.30;0.30;;;13.90;69.40;;;;;;5053324;28;20251;-73
2022/03/18 10:02:34;;;;;;;0.40;0.40;;;14.70;67.20;;;;;;5052483;28;20202;-75
2022/03/18 10:05:01;;;;;;;0.30;0.30;;;15.30;67.60;;;;;;5050830;28;20953;-73
2022/03/18 10:07:28;;;;;;;0.30;0.30;;;15.80;66.80;;;;;;5052615;28;20484;-74
2022/03/18 10:10:04;;;;;;;1.27;1.27;;;16.20;62.70;;;;;;5052632;28;20483;-74
2022/03/18 10:12:34;;;;;;;0.93;0.93;;;15.90;62.70;;;;;;5050467;28;20404;-75
2022/03/18 10:15:13;;;;;;;0.30;0.30;;;15.60;63.80;;;;;;5050823;28;20432;-74
2022/03/18 10:17:58;;;;;;;0.40;0.40;;;15.20;66.10;;;;;;5051627;28;20489;-73
2022/03/18 10:20:40;;;;;;;0.30;0.30;;;14.90;66.70;;;;;;5050310;28;20419;-73
2022/03/18 10:23:15;;;;;;;0.70;0.70;;;14.40;66.80;;;;;;5052930;28;20408;-74
2022/03/18 10:25:41;;;;;;;1.03;0.93;;;14.00;67.90;;;;;;5052623;28;20844;-75
2022/03/18 10:28:09;;;;;;;6.43;1.73;;;14.20;68.90;;;;;;5052721;28;20454;-73
2022/03/18 10:30:35;;;;;;;0.87;0.87;;;13.60;68.70;;;;;;5052608;28;20812;-73
2022/03/18 10:33:02;;;;;;;1.10;1.07;;;14.10;70.50;;;;;;5053452;28;20397;-75
2022/03/18 10:38:33;;;;;;;0.30;0.30;;;13.20;69.30;;;;;;5056248;28;20442;-74
2022/03/18 10:41:00;;;;;;;1.03;0.77;;;13.10;72.50;;;;;;5056087;28;20416;-74
2022/03/18 10:43:26;;;;;;;0.40;0.40;;;12.70;71.20;;;;;;5056246;28;20412;-74
2022/03/18 10:46:02;;;;;;;0.40;0.40;;;12.20;74.30;;;;;;5056175;28;20424;-75
2022/03/18 10:48:28;;;;;;;0.30;0.30;;;12.20;74.80;;;;;;5055972;28;20448;-75
2022/03/18 10:51:04;;;;;;;0.50;0.50;;;11.70;75.10;;;;;;5056271;28;20423;-74
2022/03/18 10:53:31;;;;;;;0.70;0.70;;;12.90;74.50;;;;;;5056078;28;20249;-74
2022/03/18 10:56:02;;;;;;;0.37;0.37;;;13.40;73.90;;;;;;5055897;28;20423;-74
2022/03/18 10:58:32;;;;;;;1.27;1.17;;;13.90;69.10;;;;;;5055777;28;20423;-72
2022/03/18 11:01:00;;;;;;;0.30;0.30;;;12.20;70.80;;;;;;5055619;28;20431;-73
2022/03/18 11:03:26;;;;;;;2.58;0.82;;;11.30;75.70;;;;;;5055920;28;20397;-73
2022/03/18 11:05:52;;;;;;;0.30;0.30;;;10.70;76.50;;;;;;5055628;28;20197;-73
2022/03/18 11:08:23;;;;;;;1.13;1.13;;;11.10;79.20;;;;;;5056230;28;20197;-74
2022/03/18 11:13:46;;;;;;;0.30;0.30;;;11.40;74.80;;;;;;5054468;28;20407;-75
2022/03/18 11:16:15;;;;;;;0.30;0.30;;;11.20;76.50;;;;;;5055316;28;20201;-73
2022/03/18 11:18:41;;;;;;;0.30;0.30;;;11.30;76.00;;;;;;5055734;28;20624;-74
2022/03/18 11:21:09;;;;;;;1.27;1.27;;;11.70;76.90;;;;;;5055360;28;20408;-73
2022/03/18 11:23:38;;;;;;;2.80;1.13;;;12.00;76.20;;;;;;5055600;28;20942;-75
2022/03/18 11:26:04;;;;;;;1.37;1.37;;;12.00;76.20;;;;;;5055448;28;20436;-75
2022/03/18 11:28:30;;;;;;;0.30;0.30;;;12.30;77.00;;;;;;5055164;28;20452;-74
2022/03/18 11:31:17;;;;;;;0.30;0.30;;;11.70;73.40;;;;;;5054908;28;20508;-73
2022/03/18 11:34:05;;;;;;;0.30;0.30;;;11.70;76.50;;;;;;5055487;28;20393;-73
2022/03/18 11:36:31;;;;;;;0.87;0.87;;;12.30;75.60;;;;;;5055042;28;20421;-74
2022/03/18 11:39:02;;;;;;;1.10;1.10;;;12.30;72.40;;;;;;5055123;28;20420;-72
2022/03/18 11:41:45;;;;;;;0.40;0.40;;;11.30;75.80;;;;;;5055209;28;20253;-73
2022/03/18 11:44:31;;;;;;;0.50;0.50;;;10.70;78.10;;;;;;5054613;28;20185;-75
2022/03/18 11:47:20;;;;;;;0.30;0.30;;;11.30;79.60;;;;;;5054403;28;20193;-76
2022/03/18 11:49:46;;;;;;;1.08;1.08;;;11.50;75.80;;;;;;5054278;28;20174;-75
2022/03/18 11:52:12;;;;;;;0.50;0.50;;;10.80;77.60;;;;;;5055308;28;20173;-73
2022/03/18 11:54:50;;;;;;;1.43;0.60;;;11.20;77.90;;;;;;5055554;28;20170;-73
2022/03/18 11:57:45;;;;;;;1.88;1.73;;;11.10;76.60;;;;;;5054728;28;20177;-74
2022/03/18 12:00:32;;;;;;;0.30;0.30;;;10.20;79.10;;;;;;5054366;28;20213;-75
2022/03/18 12:03:02;;;;;;;0.30;0.30;;;10.60;81.00;;;;;;5055099;28;20256;-75
2022/03/18 12:05:32;;;;;;;0.30;0.30;;;11.20;80.40;;;;;;5054414;28;20195;-73
2022/03/18 12:07:59;;;;;;;1.05;0.88;;;12.00;78.30;;;;;;5055163;28;20610;-74
2022/03/18 12:10:41;;;;;;;0.30;0.30;;;11.90;76.90;;;;;;5055887;28;20223;-75
2022/03/18 12:13:07;;;;;;;2.15;2.05;;;12.70;76.10;;;;;;5054799;28;20393;-73
2022/03/18 12:15:37;;;;;;;1.30;1.27;;;12.40;76.40;;;;;;5054214;28;20205;-73
2022/03/18 12:18:04;;;;;;;0.40;0.40;;;12.40;73.40;;;;;;5054437;28;20446;-74
2022/03/18 12:20:32;;;;;;;0.30;0.30;;;11.40;74.40;;;;;;5054068;28;20166;-73
2022/03/18 12:23:06;;;;;;;0.30;0.30;;;10.50;79.00;;;;;;5054402;28;20541;-74
2022/03/18 12:25:33;;;;;;;0.55;0.55;;;10.30;81.50;;;;;;5054225;28;20189;-75
2022/03/18 12:27:59;;;;;;;0.30;0.30;;;10.80;83.00;;;;;;5053996;28;20224;-73
2022/03/18 12:30:26;;;;;;;0.53;0.53;;;11.60;79.50;;;;;;5052717;28;20413;-73
2022/03/18 12:33:04;;;;;;;0.30;0.30;;;11.80;77.90;;;;;;5054447;28;20239;-74
2022/03/18 12:35:45;;;;;;;1.00;1.00;;;12.20;78.60;;;;;;5054143;28;20837;-74
2022/03/18 12:38:13;;;;;;;1.03;0.63;;;12.50;76.70;;;;;;5053995;28;20381;-74
2022/03/18 12:41:06;;;;;;;3.17;3.07;;;12.50;76.40;;;;;;5053818;28;20436;-75
2022/03/18 12:43:32;;;;;;;1.23;0.97;;;12.40;75.50;;;;;;5054246;28;20420;-75
2022/03/18 12:45:58;;;;;;;0.80;0.80;;;11.80;76.30;;;;;;5053680;28;20429;-75
2022/03/18 12:48:24;;;;;;;0.30;0.30;;;11.90;77.40;;;;;;5053736;28;20444;-73
2022/03/18 12:50:52;;;;;;;0.30;0.30;;;12.10;79.10;;;;;;5053651;28;20412;-75
2022/03/18 12:53:30;;;;;;;0.98;0.98;;;11.90;78.00;;;;;;5053605;28;20411;-73
2022/03/18 12:55:58;;;;;;;6.73;1.90;;;12.00;80.30;;;;;;5052933;28;20190;-74
2022/03/18 12:58:25;;;;;;;0.40;0.40;;;12.60;78.30;;;;;;5053679;28;20455;-75
2022/03/18 13:00:56;;;;;;;0.97;0.97;;;12.70;75.70;;;;;;5053306;28;20428;-73
2022/03/18 13:03:26;;;;;;;0.30;0.30;;;13.00;74.00;;;;;;5053771;28;20396;-73
2022/03/18 13:05:54;;;;;;;1.13;1.13;;;13.20;73.50;;;;;;5052827;28;20817;-74
2022/03/18 13:08:21;;;;;;;2.83;1.63;;;13.30;73.50;;;;;;5053560;28;20498;-75
2022/03/18 13:10:59;;;;;;;1.50;1.40;;;13.20;73.70;;;;;;5050848;28;20911;-73
2022/03/18 13:13:27;;;;;;;0.77;0.77;;;12.90;73.50;;;;;;5051639;28;20970;-76
2022/03/18 13:16:01;;;;;;;0.87;0.87;;;12.70;72.90;;;;;;5052174;28;20453;-72